createdAt,value
2022-12-15T00:00:48.860Z,68.81
2022-12-15T00:03:34.365Z,67.89
2022-12-15T00:06:19.619Z,68.15
2022-12-15T00:09:07.464Z,66.64
2022-12-15T00:11:54.716Z,66.80
2022-12-15T00:22:25.764Z,67.47
2022-12-15T00:25:16.880Z,66.72
2022-12-15T00:28:02.252Z,66.10
2022-12-15T00:39:19.646Z,66.66
2022-12-15T00:41:46.209Z,65.76
2022-12-15T00:44:17.288Z,65.69
2022-12-15T00:46:55.932Z,66.39
2022-12-15T00:50:04.746Z,65.52
2022-12-15T00:52:49.964Z,66.60
2022-12-15T00:55:35.196Z,65.39
2022-12-15T00:58:20.777Z,66.06
2022-12-15T01:07:15.093Z,67.23
2022-12-15T01:10:00.562Z,66.67
2022-12-15T01:12:45.579Z,66.25
2022-12-15T01:15:31.075Z,68.01
2022-12-15T01:18:17.099Z,67.09
2022-12-15T01:23:18.891Z,66.97
2022-12-15T01:25:45.780Z,66.85
2022-12-15T01:31:14.267Z,65.59
2022-12-15T01:37:41.633Z,65.62
2022-12-15T01:42:43.781Z,66.56
2022-12-15T01:45:47.329Z,66.28
2022-12-15T01:48:18.962Z,66.34
2022-12-15T01:50:52.350Z,66.45
2022-12-15T01:55:54.524Z,66.72
2022-12-15T01:58:22.493Z,67.13
2022-12-15T02:00:49.099Z,68.61
2022-12-15T02:03:16.360Z,67.63
2022-12-15T02:05:43.081Z,66.96
2022-12-15T02:08:10.959Z,67.05
2022-12-15T02:14:32.492Z,66.40
2022-12-15T02:17:34.166Z,66.09
2022-12-15T02:20:26.616Z,66.73
2022-12-15T02:23:54.419Z,65.93
2022-12-15T02:26:51.196Z,65.35
2022-12-15T02:29:26.699Z,65.47
2022-12-15T02:32:03.996Z,65.20
2022-12-15T02:34:45.774Z,65.05
2022-12-15T02:37:40.237Z,65.31
2022-12-15T02:40:09.808Z,65.61
2022-12-15T02:42:42.941Z,65.31
2022-12-15T02:45:11.650Z,65.10
2022-12-15T02:48:45.760Z,65.20
2022-12-15T02:51:22.656Z,65.09
2022-12-15T02:54:33.034Z,64.78
2022-12-15T04:46:56.296Z,66.75
2022-12-15T04:52:50.653Z,67.29
2022-12-15T04:55:35.691Z,66.99
2022-12-15T04:58:27.879Z,68.20
2022-12-15T05:01:16.509Z,67.72
2022-12-15T05:04:02.193Z,67.33
2022-12-15T05:06:47.435Z,68.18
2022-12-15T05:12:08.272Z,67.70
2022-12-15T05:15:11.967Z,67.70
2022-12-15T05:29:58.413Z,68.36
2022-12-15T05:32:25.041Z,68.33
2022-12-15T05:34:51.621Z,67.80
2022-12-15T05:37:18.168Z,68.00
2022-12-15T05:39:44.740Z,68.33
2022-12-15T05:56:42.205Z,67.21
2022-12-15T05:59:29.629Z,68.06
2022-12-15T06:01:56.216Z,68.34
2022-12-15T06:04:22.989Z,68.20
2022-12-15T06:06:49.580Z,68.45
2022-12-15T06:09:16.104Z,68.37
2022-12-15T06:11:43.659Z,67.92
2022-12-15T06:14:10.400Z,67.79
2022-12-15T06:16:42.543Z,67.99
2022-12-15T06:19:16.341Z,68.21
2022-12-15T06:21:45.152Z,67.88
2022-12-15T06:24:11.729Z,67.68
2022-12-15T06:26:40.207Z,67.53
2022-12-15T06:29:09.208Z,67.53
2022-12-15T06:31:37.379Z,67.33
2022-12-15T06:46:04.540Z,68.33
2022-12-15T06:48:31.980Z,68.25
2022-12-15T06:51:05.107Z,68.70
2022-12-15T06:53:32.306Z,69.63
2022-12-15T06:56:02.065Z,68.41
2022-12-15T06:58:28.836Z,68.60
2022-12-15T07:00:55.961Z,68.72
2022-12-15T07:03:23.202Z,68.25
2022-12-15T07:06:01.197Z,67.64
2022-12-15T07:08:32.172Z,67.80
2022-12-15T07:11:06.343Z,67.24
2022-12-15T07:13:33.832Z,67.68
2022-12-15T07:16:02.811Z,67.51
2022-12-15T07:18:29.825Z,68.23
2022-12-15T07:21:01.639Z,67.45
2022-12-15T07:23:52.773Z,68.35
2022-12-15T07:26:15.875Z,67.73
2022-12-15T07:28:42.416Z,67.34
2022-12-15T07:31:11.914Z,67.34
2022-12-15T07:33:39.093Z,68.34
2022-12-15T07:36:06.123Z,67.79
2022-12-15T07:38:32.681Z,67.92
2022-12-15T07:41:06.908Z,68.80
2022-12-15T07:43:34.347Z,67.71
2022-12-15T07:46:01.688Z,69.02
2022-12-15T07:48:29.240Z,69.05
2022-12-15T07:51:07.359Z,68.20
2022-12-15T07:53:36.545Z,67.73
2022-12-15T07:56:08.006Z,67.84
2022-12-15T07:58:35.612Z,67.86
2022-12-15T08:01:07.924Z,69.86
2022-12-15T08:03:35.903Z,70.05
2022-12-15T08:06:12.160Z,68.42
2022-12-15T08:08:40.860Z,68.99
2022-12-15T08:11:13.540Z,67.96
2022-12-15T08:16:28.055Z,67.91
2022-12-15T08:18:57.099Z,68.19
2022-12-15T08:21:23.682Z,67.62
2022-12-15T08:23:50.740Z,67.89
2022-12-15T08:26:18.840Z,67.64
2022-12-15T08:28:46.076Z,67.68
2022-12-15T08:31:17.585Z,67.54
2022-12-15T08:33:45.551Z,67.58
2022-12-15T08:36:14.204Z,66.82
2022-12-15T08:38:42.820Z,66.69
2022-12-15T08:41:11.857Z,65.98
2022-12-15T08:43:44.007Z,66.68
2022-12-15T08:46:14.801Z,66.18
2022-12-15T08:48:41.411Z,65.83
2022-12-15T08:51:08.218Z,65.75
2022-12-15T08:53:34.807Z,66.78
2022-12-15T08:56:13.182Z,66.63
2022-12-15T08:58:40.024Z,66.61
2022-12-15T09:01:17.474Z,66.32
2022-12-15T09:03:50.146Z,66.37
2022-12-15T09:06:19.629Z,65.83
2022-12-15T09:08:48.467Z,66.35
2022-12-15T09:11:17.639Z,65.59
2022-12-15T09:13:44.843Z,68.31
2022-12-15T09:16:18.231Z,66.89
2022-12-15T09:18:56.789Z,66.82
2022-12-15T09:21:26.352Z,65.28
2022-12-15T09:23:55.377Z,64.37
2022-12-15T09:26:23.786Z,65.16
2022-12-15T09:28:51.274Z,68.79
2022-12-15T09:31:37.973Z,68.62
2022-12-15T09:34:04.543Z,66.51
2022-12-15T09:36:35.325Z,65.86
2022-12-15T09:39:02.740Z,65.17
2022-12-15T09:41:34.537Z,64.91
2022-12-15T09:44:15.849Z,64.91
2022-12-15T09:47:07.574Z,65.18
2022-12-15T09:49:45.995Z,64.33
2022-12-15T09:52:23.736Z,66.69
2022-12-15T09:54:50.425Z,64.98
2022-12-15T09:57:40.414Z,64.35
2022-12-15T10:00:21.313Z,64.65
2022-12-15T10:02:49.930Z,65.34
2022-12-15T10:05:50.155Z,65.25
2022-12-15T10:08:16.778Z,65.14
2022-12-15T10:11:02.110Z,65.48
2022-12-15T10:13:53.472Z,65.26
2022-12-15T10:16:33.672Z,65.29
2022-12-15T10:19:07.873Z,66.28
2022-12-15T10:21:36.445Z,65.76
2022-12-15T10:25:08.643Z,66.03
2022-12-15T10:27:51.408Z,65.59
2022-12-15T10:30:18.222Z,65.38
2022-12-15T10:32:51.312Z,64.87
2022-12-15T10:35:25.125Z,66.14
2022-12-15T10:37:51.690Z,67.68
2022-12-15T10:40:19.891Z,66.55
2022-12-15T10:42:49.830Z,66.73
2022-12-15T10:45:39.099Z,66.05
2022-12-15T10:48:06.996Z,65.77
2022-12-15T10:50:35.306Z,66.92
2022-12-15T10:53:08.413Z,65.48
2022-12-15T10:55:39.845Z,65.17
2022-12-15T10:58:21.471Z,66.63
2022-12-15T11:01:04.601Z,66.52
2022-12-15T11:03:38.283Z,64.88
2022-12-15T11:06:15.480Z,64.51
2022-12-15T11:08:43.316Z,64.63
2022-12-15T11:34:11.720Z,64.91
2022-12-15T11:36:50.240Z,68.85
2022-12-15T11:39:35.832Z,67.33
2022-12-15T11:42:22.836Z,66.17
2022-12-15T11:44:52.346Z,64.69
2022-12-15T11:48:01.792Z,64.50
2022-12-15T11:50:28.274Z,64.57
2022-12-15T11:53:08.084Z,65.21
2022-12-15T11:55:57.291Z,66.09
2022-12-15T12:02:24.911Z,65.47
2022-12-15T12:05:20.266Z,66.16
2022-12-15T12:07:50.404Z,67.37
2022-12-15T12:10:53.686Z,67.28
2022-12-15T12:13:50.311Z,68.26
2022-12-15T12:16:37.076Z,67.90
2022-12-15T12:19:10.087Z,67.74
2022-12-15T12:21:42.335Z,66.57
2022-12-15T12:24:27.755Z,65.70
2022-12-15T12:27:00.121Z,66.49
2022-12-15T12:29:45.594Z,66.00
2022-12-15T12:32:36.928Z,65.81
2022-12-15T12:35:31.601Z,65.81
2022-12-15T12:38:03.932Z,65.92
2022-12-15T12:40:54.568Z,65.40
2022-12-15T12:43:35.057Z,65.90
2022-12-15T12:46:11.011Z,65.67
2022-12-15T12:48:43.655Z,66.44
2022-12-15T12:51:18.790Z,65.53
2022-12-15T12:53:45.582Z,66.03
2022-12-15T12:56:37.164Z,65.51
2022-12-15T12:59:26.371Z,65.35
2022-12-15T15:38:58.377Z,82.39
2022-12-15T17:40:51.628Z,89.21
2022-12-15T17:43:21.045Z,87.73
2022-12-15T17:46:04.699Z,89.06
2022-12-15T17:48:31.764Z,86.08
2022-12-15T18:16:19.923Z,86.50
2022-12-15T18:18:47.799Z,85.77
2022-12-15T18:21:18.350Z,87.11
2022-12-15T18:23:46.230Z,87.08
2022-12-15T18:26:14.341Z,87.55
2022-12-15T18:28:41.362Z,86.77
2022-12-15T18:31:19.574Z,86.95
2022-12-15T18:33:48.823Z,89.08
2022-12-15T18:36:26.888Z,87.11
2022-12-15T18:54:57.883Z,86.13
2022-12-15T18:57:41.382Z,86.75
2022-12-15T19:00:16.969Z,85.69
2022-12-15T19:02:49.791Z,83.94
2022-12-15T19:05:28.546Z,84.22
2022-12-15T19:08:13.876Z,83.95
2022-12-15T19:11:01.414Z,85.66
2022-12-15T19:13:33.866Z,85.56
2022-12-15T19:16:03.452Z,87.98
2022-12-15T19:18:49.109Z,89.08
2022-12-15T19:21:40.945Z,89.15
2022-12-15T19:32:08.411Z,88.51
2022-12-15T19:34:35.260Z,86.97
2022-12-15T19:42:46.570Z,83.51
2022-12-15T19:45:28.115Z,86.25
2022-12-15T19:47:58.373Z,86.31
2022-12-15T19:50:30.162Z,85.86
2022-12-15T19:53:02.159Z,86.33
2022-12-15T19:55:34.833Z,87.34
2022-12-15T20:48:50.168Z,88.48
2022-12-15T20:51:44.981Z,87.34
2022-12-15T20:54:18.806Z,88.15
2022-12-15T21:16:00.024Z,86.02
2022-12-15T21:19:10.832Z,86.94
2022-12-15T21:21:25.897Z,86.37
2022-12-15T21:23:52.643Z,85.52
2022-12-15T21:26:25.696Z,85.32
2022-12-15T21:28:59.420Z,85.37
2022-12-15T21:31:26.156Z,87.14
2022-12-15T21:33:55.198Z,86.81
2022-12-15T21:36:22.430Z,85.41
2022-12-15T21:38:51.716Z,86.22
2022-12-15T21:41:22.102Z,89.36
2022-12-15T21:43:49.473Z,87.96
2022-12-15T21:46:28.693Z,86.71
2022-12-15T21:49:14.777Z,83.42
2022-12-15T21:51:45.076Z,85.88
2022-12-15T21:54:19.327Z,87.65
2022-12-15T21:56:48.081Z,86.41
2022-12-15T21:59:17.255Z,85.17
2022-12-15T22:01:43.955Z,87.01
2022-12-15T22:04:16.371Z,86.03
2022-12-15T22:14:49.542Z,86.37
2022-12-15T22:17:18.398Z,87.39
2022-12-15T22:19:45.607Z,87.81
2022-12-15T22:25:47.634Z,88.04
2022-12-15T22:28:21.609Z,87.84
2022-12-15T22:30:51.257Z,87.39
2022-12-15T22:33:23.868Z,86.51
2022-12-15T22:35:52.247Z,86.50
2022-12-15T22:38:22.940Z,86.00
2022-12-15T22:40:52.174Z,85.58
2022-12-15T22:43:24.043Z,84.40
2022-12-15T22:45:52.976Z,82.66
2022-12-15T22:48:22.150Z,82.77
2022-12-15T22:50:48.725Z,83.49
2022-12-15T22:53:17.665Z,82.37
2022-12-15T22:55:49.658Z,82.09
2022-12-15T22:58:25.774Z,83.55
2022-12-15T23:00:56.395Z,82.59
2022-12-15T23:03:23.406Z,85.31
2022-12-15T23:05:50.042Z,86.32
2022-12-15T23:08:16.624Z,84.47
2022-12-15T23:11:01.625Z,84.73
2022-12-15T23:13:28.172Z,85.11
2022-12-15T23:16:13.333Z,86.73
2022-12-15T23:18:39.922Z,84.44
2022-12-15T23:21:08.080Z,85.44
2022-12-15T23:23:35.603Z,86.72
2022-12-15T23:26:03.629Z,85.39
2022-12-15T23:28:30.604Z,86.24
2022-12-15T23:30:57.376Z,87.80
2022-12-15T23:33:25.071Z,89.06
2022-12-15T23:35:59.630Z,89.99
2022-12-15T23:38:27.271Z,90.41
2022-12-15T23:40:55.839Z,89.74
2022-12-15T23:43:24.298Z,88.56
2022-12-15T23:45:58.353Z,87.91
2022-12-15T23:48:25.348Z,89.18
2022-12-15T23:50:51.917Z,89.55
2022-12-15T23:53:18.504Z,89.00
